createdAt,value
2022-10-17T00:00:03.225Z,987.44
2022-10-17T00:01:03.304Z,987.43
2022-10-17T00:02:03.291Z,987.39
2022-10-17T00:03:03.325Z,987.41
2022-10-17T00:04:03.357Z,987.37
2022-10-17T00:05:03.394Z,987.42
2022-10-17T00:06:03.427Z,987.41
2022-10-17T00:07:03.457Z,987.38
2022-10-17T00:08:03.491Z,987.39
2022-10-17T00:09:03.526Z,987.38
2022-10-17T00:10:03.559Z,987.44
2022-10-17T00:11:03.593Z,987.49
2022-10-17T00:12:03.650Z,987.53
2022-10-17T00:13:03.659Z,987.56
2022-10-17T00:14:03.696Z,987.56
2022-10-17T00:15:03.745Z,987.60
2022-10-17T00:16:03.760Z,987.61
2022-10-17T00:17:03.791Z,987.60
2022-10-17T00:18:03.825Z,987.56
2022-10-17T00:19:03.858Z,987.59
2022-10-17T00:20:03.891Z,987.59
2022-10-17T00:21:03.933Z,987.60
2022-10-17T00:22:03.970Z,987.61
2022-10-17T00:23:03.990Z,987.61
2022-10-17T00:24:04.024Z,987.68
2022-10-17T00:25:04.061Z,987.69
2022-10-17T00:26:04.094Z,987.70
2022-10-17T00:27:04.124Z,987.71
2022-10-17T00:28:04.185Z,987.73
2022-10-17T00:29:04.289Z,987.67
2022-10-17T00:30:04.230Z,987.68
2022-10-17T00:31:04.257Z,987.71
2022-10-17T00:32:04.293Z,987.77
2022-10-17T00:33:04.329Z,987.76
2022-10-17T00:34:04.362Z,987.77
2022-10-17T00:35:04.390Z,987.79
2022-10-17T00:36:04.424Z,987.81
2022-10-17T00:37:04.458Z,987.84
2022-10-17T00:38:04.500Z,987.84
2022-10-17T00:39:04.536Z,987.89
2022-10-17T00:40:04.560Z,987.90
2022-10-17T00:41:04.607Z,987.91
2022-10-17T00:42:04.625Z,987.93
2022-10-17T00:43:04.658Z,987.96
2022-10-17T00:44:04.716Z,987.99
2022-10-17T00:45:04.724Z,987.95
2022-10-17T00:46:04.768Z,987.99
2022-10-17T00:47:04.792Z,987.98
2022-10-17T00:48:04.825Z,988.00
2022-10-17T00:49:04.858Z,987.99
2022-10-17T00:50:04.893Z,988.05
2022-10-17T00:51:04.924Z,987.98
2022-10-17T00:52:04.960Z,988.03
2022-10-17T00:53:04.991Z,988.03
2022-10-17T00:54:05.032Z,988.06
2022-10-17T00:55:05.059Z,988.06
2022-10-17T00:56:05.092Z,988.08
2022-10-17T00:57:05.127Z,988.11
2022-10-17T00:58:05.158Z,988.16
2022-10-17T01:00:05.250Z,988.19
2022-10-17T01:01:05.326Z,988.23
2022-10-17T01:02:05.291Z,988.23
2022-10-17T01:03:05.324Z,988.23
2022-10-17T01:04:05.357Z,988.26
2022-10-17T01:05:05.395Z,988.27
2022-10-17T01:06:05.425Z,988.26
2022-10-17T01:07:05.458Z,988.24
2022-10-17T01:08:05.491Z,988.20
2022-10-17T01:09:05.524Z,988.23
2022-10-17T01:10:05.561Z,988.24
2022-10-17T01:11:05.593Z,988.23
2022-10-17T01:12:05.625Z,988.28
2022-10-17T01:13:05.658Z,988.27
2022-10-17T01:14:05.692Z,988.28
2022-10-17T01:15:05.725Z,988.33
2022-10-17T01:16:05.782Z,988.33
2022-10-17T01:17:05.793Z,988.37
2022-10-17T01:18:05.825Z,988.38
2022-10-17T01:19:05.860Z,988.40
2022-10-17T01:20:05.898Z,988.38
2022-10-17T01:21:05.925Z,988.38
2022-10-17T01:22:05.959Z,988.46
2022-10-17T01:23:05.991Z,988.43
2022-10-17T01:24:06.026Z,988.46
2022-10-17T01:25:06.058Z,988.44
2022-10-17T01:26:06.093Z,988.48
2022-10-17T01:27:06.126Z,988.48
2022-10-17T01:28:06.159Z,988.54
2022-10-17T01:29:06.192Z,988.50
2022-10-17T01:30:06.225Z,988.53
2022-10-17T01:31:06.258Z,988.55
2022-10-17T01:32:06.315Z,988.63
2022-10-17T01:33:06.325Z,988.62
2022-10-17T01:34:06.361Z,988.64
2022-10-17T01:35:06.391Z,988.69
2022-10-17T01:36:06.424Z,988.78
2022-10-17T01:37:06.561Z,988.79
2022-10-17T01:38:06.492Z,988.81
2022-10-17T01:39:06.525Z,988.88
2022-10-17T01:40:06.558Z,988.86
2022-10-17T01:41:06.592Z,988.89
2022-10-17T01:42:06.629Z,988.88
2022-10-17T01:43:06.658Z,988.91
2022-10-17T01:44:06.692Z,988.94
2022-10-17T01:45:06.731Z,988.94
2022-10-17T01:46:06.758Z,989.01
2022-10-17T01:47:06.791Z,989.02
2022-10-17T01:48:06.852Z,989.03
2022-10-17T01:49:06.858Z,989.01
2022-10-17T01:50:06.896Z,989.06
2022-10-17T01:51:06.926Z,989.09
2022-10-17T01:52:06.958Z,989.05
2022-10-17T01:53:06.993Z,989.10
2022-10-17T01:54:07.026Z,989.08
2022-10-17T01:55:07.058Z,989.10
2022-10-17T01:56:07.093Z,989.12
2022-10-17T01:57:07.126Z,989.16
2022-10-17T01:58:07.162Z,989.20
2022-10-17T01:59:07.191Z,989.20
2022-10-17T02:00:07.226Z,989.24
2022-10-17T02:01:07.292Z,989.23
2022-10-17T02:02:07.292Z,989.25
2022-10-17T02:03:07.325Z,989.31
2022-10-17T02:04:07.383Z,989.33
2022-10-17T02:05:07.393Z,989.33
2022-10-17T02:06:07.447Z,989.38
2022-10-17T02:07:07.458Z,989.44
2022-10-17T02:08:07.491Z,989.37
2022-10-17T02:09:07.526Z,989.41
2022-10-17T02:10:07.560Z,989.36
2022-10-17T02:11:07.591Z,989.43
2022-10-17T02:12:07.625Z,989.43
2022-10-17T02:13:07.663Z,989.43
2022-10-17T02:14:07.736Z,989.48
2022-10-17T02:15:07.725Z,989.52
2022-10-17T02:16:07.759Z,989.56
2022-10-17T02:17:07.793Z,989.59
2022-10-17T02:18:07.828Z,989.64
2022-10-17T02:19:07.868Z,989.66
2022-10-17T02:20:07.917Z,989.71
2022-10-17T02:21:07.926Z,989.72
2022-10-17T02:22:07.961Z,989.75
2022-10-17T02:23:08.049Z,989.79
2022-10-17T02:24:08.025Z,989.82
2022-10-17T02:25:08.068Z,989.86
2022-10-17T02:26:08.092Z,989.83
2022-10-17T02:27:08.128Z,989.85
2022-10-17T02:28:08.159Z,989.90
2022-10-17T02:29:08.193Z,989.92
2022-10-17T02:30:08.227Z,989.90
2022-10-17T02:31:08.259Z,989.92
2022-10-17T02:32:08.343Z,989.94
2022-10-17T02:33:08.327Z,989.98
2022-10-17T02:34:08.360Z,990.02
2022-10-17T02:35:08.392Z,990.01
2022-10-17T02:36:08.449Z,990.08
2022-10-17T02:37:08.461Z,990.11
2022-10-17T02:38:08.495Z,990.13
2022-10-17T02:39:08.528Z,990.12
2022-10-17T02:40:08.560Z,990.14
2022-10-17T02:41:08.594Z,990.19
2022-10-17T02:42:08.629Z,990.21
2022-10-17T02:43:08.658Z,990.28
2022-10-17T02:44:08.695Z,990.29
2022-10-17T02:45:08.729Z,990.34
2022-10-17T02:46:08.759Z,990.36
2022-10-17T02:47:08.792Z,990.38
2022-10-17T02:48:08.825Z,990.39
2022-10-17T02:49:08.859Z,990.44
2022-10-17T02:50:08.897Z,990.44
2022-10-17T02:51:08.925Z,990.45
2022-10-17T02:52:08.984Z,990.49
2022-10-17T02:53:08.994Z,990.52
2022-10-17T02:54:09.032Z,990.54
2022-10-17T02:55:09.061Z,990.58
2022-10-17T02:56:09.094Z,990.63
2022-10-17T02:57:09.127Z,990.66
2022-10-17T02:58:09.160Z,990.70
2022-10-17T02:59:09.193Z,990.76
2022-10-17T03:00:09.227Z,990.78
2022-10-17T03:01:09.358Z,990.80
2022-10-17T03:02:09.293Z,990.81
2022-10-17T03:03:09.326Z,990.87
2022-10-17T03:04:09.360Z,990.86
2022-10-17T03:05:09.395Z,990.88
2022-10-17T03:06:09.428Z,990.89
2022-10-17T03:07:09.459Z,990.88
2022-10-17T03:08:09.522Z,990.91
2022-10-17T03:09:09.528Z,990.97
2022-10-17T03:10:09.563Z,990.98
2022-10-17T03:11:09.593Z,991.02
2022-10-17T03:12:09.627Z,991.06
2022-10-17T03:13:09.664Z,991.11
2022-10-17T03:14:09.694Z,991.12
2022-10-17T03:15:09.726Z,991.18
2022-10-17T03:16:09.759Z,991.20
2022-10-17T03:17:09.793Z,991.20
2022-10-17T03:18:09.828Z,991.26
2022-10-17T03:19:09.860Z,991.26
2022-10-17T03:20:09.898Z,991.27
2022-10-17T03:21:09.928Z,991.32
2022-10-17T03:22:09.962Z,991.33
2022-10-17T03:23:09.994Z,991.35
2022-10-17T03:24:10.050Z,991.38
2022-10-17T03:25:10.061Z,991.42
2022-10-17T03:26:10.093Z,991.43
2022-10-17T03:27:10.126Z,991.48
2022-10-17T03:28:10.161Z,991.50
2022-10-17T03:29:10.229Z,991.45
2022-10-17T03:30:10.227Z,991.53
2022-10-17T03:31:10.259Z,991.57
2022-10-17T03:32:10.294Z,991.62
2022-10-17T03:33:10.326Z,991.65
2022-10-17T03:34:10.360Z,991.69
2022-10-17T03:35:14.813Z,991.74
2022-10-17T03:36:10.426Z,991.80
2022-10-17T03:37:10.460Z,991.85
2022-10-17T03:38:10.495Z,991.83
2022-10-17T03:39:10.527Z,991.86
2022-10-17T03:40:10.585Z,991.89
2022-10-17T03:41:10.594Z,991.89
2022-10-17T03:42:10.628Z,991.89
2022-10-17T03:43:10.659Z,991.98
2022-10-17T03:44:10.693Z,991.96
2022-10-17T03:45:10.727Z,992.01
2022-10-17T03:46:10.806Z,992.00
2022-10-17T03:47:13.450Z,992.08
2022-10-17T03:48:10.828Z,992.00
2022-10-17T03:49:10.860Z,992.07
2022-10-17T03:50:10.900Z,992.08
2022-10-17T03:51:10.927Z,992.10
2022-10-17T03:52:10.959Z,992.08
2022-10-17T03:53:10.994Z,992.15
2022-10-17T03:54:11.028Z,992.19
2022-10-17T03:55:11.060Z,992.18
2022-10-17T03:56:11.119Z,992.24
2022-10-17T03:57:11.127Z,992.24
2022-10-17T03:58:11.162Z,992.28
2022-10-17T03:59:11.194Z,992.30
2022-10-17T04:00:11.228Z,992.28
2022-10-17T04:01:11.369Z,992.36
2022-10-17T04:02:11.294Z,992.40
2022-10-17T04:03:16.296Z,992.43
2022-10-17T04:04:11.364Z,992.50
2022-10-17T04:05:11.396Z,992.51
2022-10-17T04:06:11.427Z,992.52
2022-10-17T04:07:11.461Z,992.59
2022-10-17T04:08:11.495Z,992.57
2022-10-17T04:09:11.527Z,992.63
2022-10-17T04:10:11.574Z,992.65
2022-10-17T04:11:11.594Z,992.69
2022-10-17T04:12:11.657Z,992.69
2022-10-17T04:13:11.660Z,992.67
2022-10-17T04:14:11.698Z,992.71
2022-10-17T04:15:11.729Z,992.73
2022-10-17T04:16:11.760Z,992.75
2022-10-17T04:17:11.794Z,992.79
2022-10-17T04:18:11.829Z,992.81
2022-10-17T04:19:11.869Z,992.87
2022-10-17T04:20:11.894Z,992.86
2022-10-17T04:21:11.929Z,992.90
2022-10-17T04:22:11.961Z,992.94
2022-10-17T04:23:11.995Z,992.96
2022-10-17T04:24:12.026Z,992.98
2022-10-17T04:25:12.061Z,993.04
2022-10-17T04:26:12.097Z,993.07
2022-10-17T04:27:12.126Z,993.09
2022-10-17T04:28:12.184Z,993.13
2022-10-17T04:29:12.197Z,993.12
2022-10-17T04:30:12.227Z,993.17
2022-10-17T04:31:12.261Z,993.18
2022-10-17T04:32:12.296Z,993.26
2022-10-17T04:33:12.328Z,993.25
2022-10-17T04:34:12.361Z,993.31
2022-10-17T04:35:12.394Z,993.28
2022-10-17T04:36:12.427Z,993.31
2022-10-17T04:37:12.461Z,993.33
2022-10-17T04:38:12.495Z,993.38
2022-10-17T04:40:12.572Z,993.37
2022-10-17T04:41:12.594Z,993.38
2022-10-17T04:42:12.629Z,993.40
2022-10-17T04:43:12.660Z,993.40
2022-10-17T04:44:12.720Z,993.39
2022-10-17T04:45:12.745Z,993.37
2022-10-17T04:46:12.769Z,993.40
2022-10-17T04:47:12.793Z,993.40
2022-10-17T04:48:12.826Z,993.43
2022-10-17T04:49:12.861Z,993.46
2022-10-17T04:50:12.895Z,993.45
2022-10-17T04:51:12.932Z,993.51
2022-10-17T04:52:12.961Z,993.49
2022-10-17T04:53:12.993Z,993.51
2022-10-17T04:54:13.027Z,993.54
2022-10-17T04:55:13.062Z,993.54
2022-10-17T04:56:13.094Z,993.53
2022-10-17T04:57:13.128Z,993.58
2022-10-17T04:58:13.160Z,993.60
2022-10-17T04:59:13.194Z,993.59
2022-10-17T05:00:13.255Z,993.72
2022-10-17T05:01:13.337Z,993.74
2022-10-17T05:02:13.294Z,993.74
2022-10-17T05:03:13.327Z,993.75
2022-10-17T05:04:13.360Z,993.79
2022-10-17T05:05:13.393Z,993.80
2022-10-17T05:06:13.429Z,993.85
2022-10-17T05:07:13.461Z,993.89
2022-10-17T05:08:13.494Z,993.91
2022-10-17T05:09:13.528Z,993.97
2022-10-17T05:10:13.562Z,993.97
2022-10-17T05:11:13.595Z,993.96
2022-10-17T05:12:13.643Z,993.99
2022-10-17T05:13:13.663Z,994.01
2022-10-17T05:14:13.698Z,994.04
2022-10-17T05:15:13.727Z,994.05
2022-10-17T05:16:13.783Z,994.06
2022-10-17T05:17:13.793Z,994.10
2022-10-17T05:18:13.827Z,994.12
2022-10-17T05:19:13.860Z,994.18
2022-10-17T05:20:13.893Z,994.20
2022-10-17T05:21:13.928Z,994.19
2022-10-17T05:22:13.960Z,994.24
2022-10-17T05:23:13.994Z,994.30
2022-10-17T05:24:14.028Z,994.31
2022-10-17T05:25:14.063Z,994.35
2022-10-17T05:26:14.093Z,994.38
2022-10-17T05:27:14.126Z,994.38
2022-10-17T05:28:14.161Z,994.40
2022-10-17T05:29:14.196Z,994.43
2022-10-17T05:30:14.227Z,994.48
2022-10-17T05:31:14.260Z,994.53
2022-10-17T05:32:14.317Z,994.51
2022-10-17T05:33:14.327Z,994.56
2022-10-17T05:34:14.361Z,994.58
2022-10-17T05:35:14.393Z,994.64
2022-10-17T05:36:14.433Z,994.65
2022-10-17T05:37:14.461Z,994.70
2022-10-17T05:38:14.494Z,994.71
2022-10-17T05:39:14.530Z,994.78
2022-10-17T05:40:14.561Z,994.77
2022-10-17T05:41:14.593Z,994.79
2022-10-17T05:42:14.628Z,994.82
2022-10-17T05:43:14.663Z,994.81
2022-10-17T05:44:14.694Z,994.81
2022-10-17T05:45:14.727Z,994.85
2022-10-17T05:46:14.762Z,994.89
2022-10-17T05:47:14.793Z,994.88
2022-10-17T05:48:14.851Z,994.94
2022-10-17T05:49:31.910Z,994.91
2022-10-17T05:50:14.895Z,994.94
2022-10-17T05:51:14.945Z,994.96
2022-10-17T05:52:14.959Z,995.02
2022-10-17T05:53:14.993Z,995.02
2022-10-17T05:54:15.028Z,995.06
2022-10-17T05:55:15.061Z,995.10
2022-10-17T05:56:15.092Z,995.12
2022-10-17T05:57:15.128Z,995.13
2022-10-17T05:58:22.021Z,995.12
2022-10-17T05:59:15.194Z,995.15
2022-10-17T06:00:15.225Z,995.12
2022-10-17T06:01:15.260Z,995.15
2022-10-17T06:02:15.363Z,995.16
2022-10-17T06:03:15.327Z,995.18
2022-10-17T06:04:15.384Z,995.24
2022-10-17T06:05:15.393Z,995.20
2022-10-17T06:06:15.427Z,995.20
2022-10-17T06:07:15.460Z,995.16
2022-10-17T06:08:15.495Z,995.22
2022-10-17T06:09:15.527Z,995.25
2022-10-17T06:10:15.561Z,995.29
2022-10-17T06:11:15.593Z,995.34
2022-10-17T06:12:15.626Z,995.32
2022-10-17T06:13:15.663Z,995.32
2022-10-17T06:14:15.697Z,995.36
2022-10-17T06:15:15.725Z,995.34
2022-10-17T06:16:15.760Z,995.41
2022-10-17T06:17:16.485Z,995.37
2022-10-17T06:18:15.827Z,995.41
2022-10-17T06:19:15.859Z,995.38
2022-10-17T06:20:15.921Z,995.40
2022-10-17T06:21:15.930Z,995.42
2022-10-17T06:22:15.960Z,995.44
2022-10-17T06:23:15.992Z,995.45
2022-10-17T06:24:16.027Z,995.47
2022-10-17T06:25:16.059Z,995.46
2022-10-17T06:26:16.094Z,995.50
2022-10-17T06:27:16.125Z,995.50
2022-10-17T06:28:16.160Z,995.57
2022-10-17T06:29:16.193Z,995.60
2022-10-17T06:30:16.226Z,995.62
2022-10-17T06:31:16.258Z,995.57
2022-10-17T06:32:16.296Z,995.63
2022-10-17T06:33:16.326Z,995.57
2022-10-17T06:34:16.359Z,995.62
2022-10-17T06:35:16.392Z,995.62
2022-10-17T06:36:16.452Z,995.68
2022-10-17T06:37:16.459Z,995.66
2022-10-17T06:38:16.493Z,995.69
2022-10-17T06:39:16.529Z,995.68
2022-10-17T06:40:16.561Z,995.74
2022-10-17T06:41:16.593Z,995.74
2022-10-17T06:42:16.632Z,995.73
2022-10-17T06:43:16.658Z,995.78
2022-10-17T06:44:16.694Z,995.77
2022-10-17T06:45:16.731Z,995.82
2022-10-17T06:46:16.759Z,995.77
2022-10-17T06:47:19.919Z,995.76
2022-10-17T06:48:16.825Z,995.83
2022-10-17T06:49:16.864Z,995.85
2022-10-17T06:50:16.893Z,995.92
2022-10-17T06:51:16.928Z,995.99
2022-10-17T06:52:16.987Z,996.04
2022-10-17T06:53:16.995Z,996.04
2022-10-17T06:54:17.027Z,996.06
2022-10-17T06:55:21.331Z,996.08
2022-10-17T06:56:17.096Z,996.11
2022-10-17T06:57:17.127Z,996.16
2022-10-17T06:58:17.159Z,996.19
2022-10-17T06:59:17.192Z,996.19
2022-10-17T07:00:17.225Z,996.22
2022-10-17T07:01:17.380Z,996.24
2022-10-17T07:02:17.293Z,996.27
2022-10-17T07:03:17.328Z,996.29
2022-10-17T07:04:17.358Z,996.28
2022-10-17T07:05:17.394Z,996.31
2022-10-17T07:06:17.427Z,996.34
2022-10-17T07:07:17.478Z,996.40
2022-10-17T07:08:17.518Z,996.44
2022-10-17T07:09:17.529Z,996.49
2022-10-17T07:10:17.559Z,996.48
2022-10-17T07:11:17.687Z,996.55
2022-10-17T07:12:17.626Z,996.59
2022-10-17T07:13:17.661Z,996.61
2022-10-17T07:14:17.701Z,996.63
2022-10-17T07:15:17.727Z,996.67
2022-10-17T07:16:17.759Z,996.69
2022-10-17T07:17:17.793Z,996.70
2022-10-17T07:18:17.826Z,996.69
2022-10-17T07:19:17.863Z,996.75
2022-10-17T07:20:17.891Z,996.74
2022-10-17T07:21:17.927Z,996.79
2022-10-17T07:22:17.958Z,996.84
2022-10-17T07:23:17.991Z,996.86
2022-10-17T07:24:18.064Z,996.85
2022-10-17T07:25:18.060Z,996.88
2022-10-17T07:26:18.094Z,996.89
2022-10-17T07:27:18.125Z,996.91
2022-10-17T07:28:18.160Z,996.91
2022-10-17T07:29:18.192Z,996.92
2022-10-17T07:30:18.225Z,996.95
2022-10-17T07:31:18.258Z,996.91
2022-10-17T07:32:18.291Z,996.97
2022-10-17T07:33:18.326Z,996.97
2022-10-17T07:34:18.360Z,997.02
2022-10-17T07:35:18.392Z,997.04
2022-10-17T07:36:18.425Z,997.02
2022-10-17T07:37:18.459Z,997.05
2022-10-17T07:38:18.492Z,997.04
2022-10-17T07:39:18.530Z,997.06
2022-10-17T07:40:18.581Z,997.09
2022-10-17T07:41:20.960Z,997.11
2022-10-17T07:42:18.625Z,997.12
2022-10-17T07:43:18.662Z,997.15
2022-10-17T07:44:18.700Z,997.19
2022-10-17T07:45:18.725Z,997.18
2022-10-17T07:46:18.759Z,997.20
2022-10-17T07:47:18.790Z,997.24
2022-10-17T07:48:18.824Z,997.26
2022-10-17T07:49:18.858Z,997.28
2022-10-17T07:50:18.892Z,997.34
2022-10-17T07:51:18.924Z,997.31
2022-10-17T07:52:18.958Z,997.36
2022-10-17T07:53:18.991Z,997.34
2022-10-17T07:54:19.025Z,997.36
2022-10-17T07:55:19.062Z,997.36
2022-10-17T07:56:19.120Z,997.43
2022-10-17T07:57:19.129Z,997.46
2022-10-17T07:58:19.158Z,997.46
2022-10-17T07:59:19.195Z,997.48
2022-10-17T08:00:19.225Z,997.49
2022-10-17T08:01:19.259Z,997.54
2022-10-17T08:02:19.291Z,997.54
2022-10-17T08:03:19.324Z,997.59
2022-10-17T08:04:19.358Z,997.61
2022-10-17T08:05:19.393Z,997.66
2022-10-17T08:06:19.432Z,997.66
2022-10-17T08:07:23.016Z,997.70
2022-10-17T08:08:19.490Z,997.69
2022-10-17T08:09:19.527Z,997.74
2022-10-17T08:10:19.558Z,997.72
2022-10-17T08:11:19.600Z,997.75
2022-10-17T08:12:19.650Z,997.75
2022-10-17T08:13:19.660Z,997.79
2022-10-17T08:14:19.710Z,997.81
2022-10-17T08:15:19.742Z,997.83
2022-10-17T08:16:19.759Z,997.85
2022-10-17T08:17:19.792Z,997.89
2022-10-17T08:18:19.827Z,997.85
2022-10-17T08:19:19.857Z,997.85
2022-10-17T08:20:19.891Z,997.89
2022-10-17T08:21:19.924Z,997.90
2022-10-17T08:22:19.961Z,997.88
2022-10-17T08:23:19.991Z,997.86
2022-10-17T08:24:20.025Z,997.89
2022-10-17T08:25:20.057Z,997.89
2022-10-17T08:26:20.117Z,997.97
2022-10-17T08:27:20.125Z,997.97
2022-10-17T08:28:20.183Z,998.03
2022-10-17T08:29:20.191Z,998.02
2022-10-17T08:30:20.224Z,998.05
2022-10-17T08:31:20.257Z,998.06
2022-10-17T08:32:20.291Z,998.04
2022-10-17T08:33:20.327Z,998.06
2022-10-17T08:34:20.359Z,998.02
2022-10-17T08:35:20.392Z,998.05
2022-10-17T08:36:20.427Z,998.03
2022-10-17T08:37:20.458Z,998.04
2022-10-17T08:38:21.116Z,998.08
2022-10-17T08:39:20.523Z,998.04
2022-10-17T08:40:20.559Z,997.98
2022-10-17T08:41:20.594Z,997.97
2022-10-17T08:42:20.624Z,998.01
2022-10-17T08:43:20.657Z,998.00
2022-10-17T08:44:20.714Z,998.04
2022-10-17T08:45:20.724Z,998.03
2022-10-17T08:46:20.817Z,998.07
2022-10-17T08:47:20.791Z,998.07
2022-10-17T08:48:20.824Z,998.13
2022-10-17T08:49:20.857Z,998.14
2022-10-17T08:50:20.893Z,998.18
2022-10-17T08:51:20.923Z,998.20
2022-10-17T08:52:20.958Z,998.23
2022-10-17T08:53:20.993Z,998.22
2022-10-17T08:54:21.025Z,998.21
2022-10-17T08:55:21.062Z,998.23
2022-10-17T08:56:25.155Z,998.28
2022-10-17T08:57:21.125Z,998.30
2022-10-17T08:58:21.159Z,998.35
2022-10-17T08:59:21.191Z,998.37
2022-10-17T09:00:21.256Z,998.38
2022-10-17T09:01:21.258Z,998.38
2022-10-17T09:02:21.291Z,998.33
2022-10-17T09:03:21.404Z,998.37
2022-10-17T09:04:21.533Z,998.36
2022-10-17T09:05:24.017Z,998.35
2022-10-17T09:06:21.424Z,998.35
2022-10-17T09:07:21.457Z,998.33
2022-10-17T09:08:21.491Z,998.33
2022-10-17T09:09:21.525Z,998.35
2022-10-17T09:10:21.557Z,998.35
2022-10-17T09:11:21.590Z,998.33
2022-10-17T09:12:21.630Z,998.39
2022-10-17T09:13:21.661Z,998.39
2022-10-17T09:14:21.694Z,998.43
2022-10-17T09:15:21.726Z,998.44
2022-10-17T09:16:21.782Z,998.50
2022-10-17T09:17:21.791Z,998.54
2022-10-17T09:18:22.202Z,998.60
2022-10-17T09:19:21.859Z,998.67
2022-10-17T09:20:21.892Z,998.70
2022-10-17T09:21:21.925Z,998.75
2022-10-17T09:22:21.961Z,998.73
2022-10-17T09:23:21.992Z,998.72
2022-10-17T09:24:22.023Z,998.71
2022-10-17T09:25:22.057Z,998.68
2022-10-17T09:26:22.092Z,998.67
2022-10-17T09:27:22.126Z,998.71
2022-10-17T09:28:22.231Z,998.69
2022-10-17T09:29:22.194Z,998.74
2022-10-17T09:30:40.502Z,998.76
2022-10-17T09:31:22.278Z,998.80
2022-10-17T09:32:22.318Z,998.82
2022-10-17T09:33:34.765Z,998.86
2022-10-17T09:34:25.236Z,998.94
2022-10-17T09:35:22.390Z,998.97
2022-10-17T09:36:22.423Z,998.98
2022-10-17T09:37:22.457Z,999.04
2022-10-17T09:38:22.493Z,999.04
2022-10-17T09:39:22.523Z,999.01
2022-10-17T09:40:22.557Z,998.99
2022-10-17T09:42:22.626Z,998.99
2022-10-17T09:43:22.658Z,999.04
2022-10-17T09:44:22.696Z,999.10
2022-10-17T09:45:22.725Z,999.11
2022-10-17T09:46:22.758Z,999.14
2022-10-17T09:47:22.789Z,999.16
2022-10-17T09:48:22.850Z,999.18
2022-10-17T09:49:22.857Z,999.20
2022-10-17T09:50:22.891Z,999.21
2022-10-17T09:51:26.178Z,999.27
2022-10-17T09:52:22.957Z,999.32
2022-10-17T09:53:22.990Z,999.36
2022-10-17T09:54:23.024Z,999.42
2022-10-17T09:55:23.061Z,999.42
2022-10-17T09:56:23.092Z,999.50
2022-10-17T09:57:23.223Z,999.54
2022-10-17T09:58:23.157Z,999.57
2022-10-17T09:59:23.194Z,999.60
2022-10-17T10:00:23.430Z,999.62
2022-10-17T10:01:24.389Z,999.60
2022-10-17T10:02:23.294Z,999.60
2022-10-17T10:03:23.326Z,999.63
2022-10-17T10:04:23.382Z,999.71
2022-10-17T10:05:23.390Z,999.70
2022-10-17T10:06:23.425Z,999.73
2022-10-17T10:07:28.241Z,999.80
2022-10-17T10:08:23.490Z,999.83
2022-10-17T10:09:23.532Z,999.85
2022-10-17T10:10:23.558Z,999.88
2022-10-17T10:11:23.589Z,999.98
2022-10-17T10:12:23.625Z,999.96
2022-10-17T10:13:23.657Z,1000.00
2022-10-17T10:14:23.691Z,1000.03
2022-10-17T10:15:23.722Z,1000.07
2022-10-17T10:16:23.757Z,1000.10
2022-10-17T10:17:23.790Z,1000.08
2022-10-17T10:18:23.863Z,1000.18
2022-10-17T10:19:23.859Z,1000.19
2022-10-17T10:20:23.916Z,1000.20
2022-10-17T10:21:23.923Z,1000.20
2022-10-17T10:22:23.956Z,1000.28
2022-10-17T10:23:24.019Z,1000.26
2022-10-17T10:24:26.960Z,1000.23
2022-10-17T10:25:24.056Z,1000.25
2022-10-17T10:26:24.091Z,1000.29
2022-10-17T10:27:24.174Z,1000.31
2022-10-17T10:28:24.176Z,1000.38
2022-10-17T10:29:24.194Z,1000.39
2022-10-17T10:30:24.223Z,1000.44
2022-10-17T10:31:24.257Z,1000.46
2022-10-17T10:32:24.289Z,1000.49
2022-10-17T10:33:24.325Z,1000.53
2022-10-17T10:34:24.359Z,1000.56
2022-10-17T10:35:24.395Z,1000.62
2022-10-17T10:36:24.528Z,1000.62
2022-10-17T10:37:24.464Z,1000.62
2022-10-17T10:38:24.490Z,1000.62
2022-10-17T10:39:24.526Z,1000.60
2022-10-17T10:40:24.560Z,1000.61
2022-10-17T10:41:24.592Z,1000.61
2022-10-17T10:42:24.626Z,1000.59
2022-10-17T10:43:24.657Z,1000.64
2022-10-17T10:44:24.691Z,1000.60
2022-10-17T10:45:46.515Z,1000.60
2022-10-17T10:46:24.756Z,1000.65
2022-10-17T10:47:24.789Z,1000.70
2022-10-17T10:48:24.823Z,1000.71
2022-10-17T10:49:24.858Z,1000.73
2022-10-17T10:50:24.893Z,1000.84
2022-10-17T10:51:24.925Z,1000.83
2022-10-17T10:52:24.981Z,1000.90
2022-10-17T10:53:24.996Z,1000.89
2022-10-17T10:54:25.029Z,1000.91
2022-10-17T10:55:25.056Z,1000.87
2022-10-17T10:56:25.093Z,1000.93
2022-10-17T10:57:25.125Z,1000.99
2022-10-17T10:58:25.158Z,1000.96
2022-10-17T10:59:25.191Z,1000.95
2022-10-17T11:00:25.285Z,1000.98
2022-10-17T11:01:25.258Z,1000.96
2022-10-17T11:02:25.290Z,1001.01
2022-10-17T11:03:25.328Z,1000.99
2022-10-17T11:04:25.361Z,1000.96
2022-10-17T11:05:25.387Z,1000.99
2022-10-17T11:06:25.423Z,1000.98
2022-10-17T11:07:25.454Z,1000.97
2022-10-17T11:08:25.514Z,1000.96
2022-10-17T11:09:26.975Z,1000.96
2022-10-17T11:10:25.559Z,1001.00
2022-10-17T11:11:25.591Z,1001.01
2022-10-17T11:12:25.625Z,1001.02
2022-10-17T11:13:25.655Z,1001.10
2022-10-17T11:14:25.689Z,1001.10
2022-10-17T11:15:25.726Z,1001.03
2022-10-17T11:16:25.755Z,1001.04
2022-10-17T11:17:25.789Z,1001.03
2022-10-17T11:18:25.821Z,1001.03
2022-10-17T11:19:25.856Z,1001.02
2022-10-17T11:20:25.891Z,1001.02
2022-10-17T11:21:25.921Z,1001.02
2022-10-17T11:22:28.296Z,1001.05
2022-10-17T11:23:25.990Z,1001.03
2022-10-17T11:24:26.048Z,1001.08
2022-10-17T11:25:26.055Z,1001.05
2022-10-17T11:26:26.090Z,1001.04
2022-10-17T11:27:26.122Z,1001.07
2022-10-17T11:28:26.225Z,1001.11
2022-10-17T11:29:26.187Z,1001.15
2022-10-17T11:30:26.224Z,1001.17
2022-10-17T11:31:26.257Z,1001.23
2022-10-17T11:32:26.685Z,1001.30
2022-10-17T11:33:26.323Z,1001.35
2022-10-17T11:34:26.355Z,1001.36
2022-10-17T11:35:26.392Z,1001.32
2022-10-17T11:36:26.426Z,1001.34
2022-10-17T11:37:26.455Z,1001.36
2022-10-17T11:38:26.488Z,1001.33
2022-10-17T11:39:26.520Z,1001.32
2022-10-17T11:40:26.579Z,1001.37
2022-10-17T11:41:26.587Z,1001.42
2022-10-17T11:42:27.052Z,1001.34
2022-10-17T11:43:26.655Z,1001.32
2022-10-17T11:44:26.767Z,1001.30
2022-10-17T11:45:26.721Z,1001.23
2022-10-17T11:46:26.839Z,1001.23
2022-10-17T11:47:26.789Z,1001.27
2022-10-17T11:48:26.821Z,1001.29
2022-10-17T11:52:51.313Z,1001.20
2022-10-17T11:53:26.988Z,1001.19
2022-10-17T11:54:27.021Z,1001.16
2022-10-17T11:55:27.056Z,1001.17
2022-10-17T11:56:27.116Z,1001.20
2022-10-17T11:57:27.120Z,1001.25
2022-10-17T11:58:27.154Z,1001.20
2022-10-17T11:59:27.191Z,1001.25
2022-10-17T12:00:27.221Z,1001.29
2022-10-17T12:01:27.256Z,1001.23
2022-10-17T12:02:27.572Z,1001.23
2022-10-17T12:03:27.320Z,1001.19
2022-10-17T12:04:27.417Z,1001.23
2022-10-17T12:05:27.387Z,1001.20
2022-10-17T12:06:29.448Z,1001.23
2022-10-17T12:07:27.829Z,1001.30
2022-10-17T12:08:30.468Z,1001.34
2022-10-17T12:09:27.523Z,1001.40
2022-10-17T12:10:27.553Z,1001.39
2022-10-17T12:11:27.585Z,1001.38
2022-10-17T12:12:28.119Z,1001.39
2022-10-17T12:13:27.652Z,1001.39
2022-10-17T12:14:27.690Z,1001.34
2022-10-17T12:15:27.719Z,1001.35
2022-10-17T12:16:27.766Z,1001.36
2022-10-17T12:17:28.278Z,1001.47
2022-10-17T12:18:27.820Z,1001.51
2022-10-17T12:19:27.852Z,1001.49
2022-10-17T12:20:27.886Z,1001.46
2022-10-17T12:21:31.315Z,1001.46
2022-10-17T12:22:27.953Z,1001.44
2022-10-17T12:23:27.990Z,1001.38
2022-10-17T12:24:28.657Z,1001.46
2022-10-17T12:25:28.088Z,1001.55
2022-10-17T12:26:28.093Z,1001.61
2022-10-17T12:27:28.481Z,1001.69
2022-10-17T12:28:28.249Z,1001.70
2022-10-17T12:29:28.186Z,1001.67
2022-10-17T12:30:28.220Z,1001.66